»·PEaware :: UAL5321 KPSP-KABQ

UAL5321 :: KPSP-KABQ

FLIGHT INFORMATION

Flight Status: Arrived
Operator:
United Airlines
More flights by this operator :: More flights under this callsign
Pilot: Anonymous 15639 (15639)
Aircraft: BOEING 737-800
(B738)
More flights by this aircraft type
Origin: KPSP Palm Springs Intl
United States
Destination: KABQ Albuquerque Intl Sunport
United States
More flights between these airports :: More routes between these airports
Route: +TRM PKE J74 SJN CABNO KRKEE3
File this flight plan on PilotEdge
Remarks:
Altitude:
(Current/Filed)
39,000ft
Speed:
(Current/Filed)
452kts
Departed: 05-Sep-18 07:56 AM
Arrived: 05-Sep-18 09:13 AM
Distance/Time
Traveled:
495nm/1:17
Distance/Time
To Go:
Arrived

Flight Plot

Page will automatically refresh every two minutes.

Flight plan parsing failed; only flown route is shown


Map Options




Map Legend


Flown Route
Filed Route
Departure Airport
Arrival Airport
Navaid (VOR, NDB)
Fix

Horizontal Profiles

Position Reports

Time Latitude Longitude Heading Altitude Ground
Speed
05-Sep-18 07:26 33.823729 -116.506166 225 485ft 0kts
05-Sep-18 07:27 33.823729 -116.506166 225 485ft 0kts
05-Sep-18 07:28 33.823729 -116.506166 225 485ft 0kts
05-Sep-18 07:29 33.823729 -116.506166 225 485ft 0kts
05-Sep-18 07:30 33.823729 -116.506166 225 485ft 0kts
05-Sep-18 07:31 33.823729 -116.506166 225 485ft 0kts
05-Sep-18 07:32 33.823729 -116.506166 225 485ft 0kts
05-Sep-18 07:33 33.823729 -116.506166 225 485ft 0kts
05-Sep-18 07:34 33.823729 -116.506166 225 485ft 0kts
05-Sep-18 07:35 33.823729 -116.506166 225 485ft 0kts
05-Sep-18 07:36 33.823729 -116.506166 225 485ft 0kts
05-Sep-18 07:37 33.823729 -116.506166 225 485ft 0kts
05-Sep-18 07:38 33.823729 -116.506166 225 485ft 0kts
05-Sep-18 07:39 33.823729 -116.506166 225 485ft 0kts
05-Sep-18 07:40 33.823729 -116.506166 225 485ft 0kts
05-Sep-18 07:41 33.823729 -116.506166 225 485ft 0kts
05-Sep-18 07:42 33.823729 -116.506166 225 485ft 0kts
05-Sep-18 07:43 33.823729 -116.506166 225 485ft 0kts
05-Sep-18 07:44 33.823729 -116.506166 225 485ft 0kts
05-Sep-18 07:45 33.823729 -116.506166 225 485ft 0kts
05-Sep-18 07:46 33.823729 -116.506166 225 485ft 0kts
05-Sep-18 07:47 33.823729 -116.506166 225 485ft 0kts
05-Sep-18 07:48 33.823729 -116.506166 225 485ft 0kts
05-Sep-18 07:49 33.823729 -116.506166 225 485ft 0kts
05-Sep-18 07:50 33.824067 -116.505796 195 485ft 2kts
05-Sep-18 07:51 33.824402 -116.505888 142 485ft 0kts
05-Sep-18 07:52 33.824402 -116.505888 142 485ft 0kts
05-Sep-18 07:53 33.824402 -116.505888 142 485ft 0kts
05-Sep-18 07:54 33.823381 -116.504959 142 485ft 7kts
05-Sep-18 07:55 33.822349 -116.503153 143 485ft 9kts
05-Sep-18 07:56 33.819903 -116.500995 143 485ft 11kts
05-Sep-18 07:57 33.818496 -116.498596 61 485ft 7kts
05-Sep-18 07:58 33.832574 -116.510281 323 569ft 157kts
05-Sep-18 07:59 33.872388 -116.546317 319 2870ft 213kts
05-Sep-18 08:00 33.931504 -116.574472 28 5885ft 277kts
05-Sep-18 08:01 33.944072 -116.490700 125 9653ft 278kts
05-Sep-18 08:02 33.884708 -116.424322 138 12737ft 307kts
05-Sep-18 08:03 33.818332 -116.355846 136 15925ft 324kts
05-Sep-18 08:04 33.748329 -116.283773 135 18706ft 344kts
05-Sep-18 08:05 33.675446 -116.205334 121 21148ft 359kts
05-Sep-18 08:06 33.652784 -116.091818 77 22920ft 362kts
05-Sep-18 08:07 33.686149 -115.979328 65 24019ft 362kts
05-Sep-18 08:08 33.723136 -115.864580 64 26053ft 378kts
05-Sep-18 08:09 33.761494 -115.744126 63 27835ft 395kts
05-Sep-18 08:10 33.801527 -115.618288 63 29516ft 410kts
05-Sep-18 08:11 33.842430 -115.489920 62 31320ft 416kts
05-Sep-18 08:12 33.884284 -115.358988 62 32960ft 422kts
05-Sep-18 08:13 33.926571 -115.227156 63 34448ft 426kts
05-Sep-18 08:14 33.969038 -115.095092 63 36071ft 423kts
05-Sep-18 08:15 34.011511 -114.963451 64 37469ft 421kts
05-Sep-18 08:16 34.053893 -114.832346 64 38673ft 421kts
05-Sep-18 08:17 34.097272 -114.698447 67 38981ft 444kts
05-Sep-18 08:18 34.114123 -114.545232 82 39005ft 472kts
05-Sep-18 08:19 34.125765 -114.387995 81 39013ft 470kts
05-Sep-18 08:20 34.137662 -114.234032 82 39009ft 471kts
05-Sep-18 08:21 34.149967 -114.077234 82 39010ft 471kts
05-Sep-18 08:22 34.160378 -113.919932 83 39011ft 471kts
05-Sep-18 08:23 34.169120 -113.762054 83 39012ft 471kts
05-Sep-18 08:23 34.176481 -113.630663 83 39012ft 471kts
05-Sep-18 08:25 34.187011 -113.446878 83 39053ft 470kts
05-Sep-18 08:26 34.196229 -113.290004 83 39183ft 471kts
05-Sep-18 08:26 34.203946 -113.161170 83 39224ft 472kts
05-Sep-18 08:27 34.213573 -113.003287 83 39238ft 471kts
05-Sep-18 08:28 34.223452 -112.844945 85 39255ft 474kts
05-Sep-18 08:30 34.235072 -112.661507 85 39274ft 469kts
05-Sep-18 08:30 34.243593 -112.529908 85 39284ft 471kts
05-Sep-18 08:31 34.253931 -112.372963 85 39285ft 470kts
05-Sep-18 08:32 34.264512 -112.215746 85 39281ft 470kts
05-Sep-18 08:33 34.275305 -112.057931 85 39282ft 471kts
05-Sep-18 08:34 34.286277 -111.900303 85 39282ft 470kts
05-Sep-18 08:35 34.297374 -111.743284 85 39282ft 471kts
05-Sep-18 08:36 34.308710 -111.585503 85 39284ft 470kts
05-Sep-18 08:37 34.320180 -111.428439 84 39285ft 471kts
05-Sep-18 08:38 34.331171 -111.270892 87 39284ft 470kts
05-Sep-18 08:39 34.339003 -111.113500 87 39283ft 471kts
05-Sep-18 08:40 34.346981 -110.954854 88 39284ft 473kts
05-Sep-18 08:41 34.355073 -110.796248 88 39292ft 472kts
05-Sep-18 08:42 34.362551 -110.638533 88 39312ft 472kts
05-Sep-18 08:43 34.370018 -110.479964 88 39349ft 472kts
05-Sep-18 08:44 34.376836 -110.321571 89 39370ft 472kts
05-Sep-18 08:45 34.382891 -110.163260 89 39373ft 472kts
05-Sep-18 08:46 34.388905 -110.004482 89 39374ft 472kts
05-Sep-18 08:47 34.395051 -109.846566 89 39363ft 472kts
05-Sep-18 08:48 34.401434 -109.688184 89 39327ft 471kts
05-Sep-18 08:49 34.407930 -109.529931 89 39322ft 472kts
05-Sep-18 08:50 34.414650 -109.371129 89 39322ft 472kts
05-Sep-18 08:51 34.421588 -109.213253 89 39319ft 471kts
05-Sep-18 08:52 34.435211 -109.054576 83 39320ft 476kts
05-Sep-18 08:53 34.455140 -108.896660 84 39313ft 461kts
05-Sep-18 08:54 34.473807 -108.747075 84 39114ft 466kts
05-Sep-18 08:55 34.493362 -108.588163 84 38152ft 477kts
05-Sep-18 08:56 34.515551 -108.430961 80 37179ft 476kts
05-Sep-18 08:57 34.543074 -108.272968 80 34286ft 492kts
05-Sep-18 08:58 34.570765 -108.111727 81 30679ft 480kts
05-Sep-18 08:59 34.596395 -107.960791 81 28121ft 445kts
05-Sep-18 09:00 34.620285 -107.819359 79 25687ft 408kts
05-Sep-18 09:01 34.668948 -107.696547 64 23373ft 401kts
05-Sep-18 09:02 34.719986 -107.578850 64 21139ft 388kts
05-Sep-18 09:03 34.768841 -107.465427 64 19025ft 374kts
05-Sep-18 09:04 34.816358 -107.354418 64 16649ft 368kts
05-Sep-18 09:05 34.861312 -107.248482 65 14653ft 345kts
05-Sep-18 09:06 34.902416 -107.149309 65 13007ft 316kts
05-Sep-18 09:07 34.941832 -107.056676 64 11709ft 302kts
05-Sep-18 09:08 34.979747 -106.967329 65 10415ft 293kts
05-Sep-18 09:09 35.014361 -106.879755 65 9124ft 275kts
05-Sep-18 09:10 35.044223 -106.800067 85 8107ft 238kts
05-Sep-18 09:11 35.044924 -106.727974 90 7065ft 194kts
05-Sep-18 09:12 35.044597 -106.666190 90 6157ft 159kts
05-Sep-18 09:13 35.044276 -106.613262 89 5370ft 151kts
05-Sep-18 09:14 35.044938 -106.591758 60 5362ft 7kts
05-Sep-18 09:15 35.045791 -106.590527 300 5362ft 6kts
05-Sep-18 09:16 35.045795 -106.593447 271 5362ft 8kts
05-Sep-18 09:17 35.045850 -106.597319 270 5362ft 13kts
05-Sep-18 09:18 35.045721 -106.601471 271 5362ft 11kts
05-Sep-18 09:20 35.045756 -106.605012 270 5362ft 10kts
05-Sep-18 09:21 35.045781 -106.608645 269 5362ft 10kts
05-Sep-18 09:22 35.045806 -106.611606 270 5362ft 8kts
05-Sep-18 09:23 35.046705 -106.613518 308 5362ft 5kts
05-Sep-18 09:24 35.047004 -106.614009 307 5362ft 0kts
05-Sep-18 09:25 35.047004 -106.614009 307 5362ft 0kts

Navigation Log

Ident Type
Flight plan parsing failed, navigation log unavailable